Time;durP1;ratioP1;P1;durP2;ratioP2;P2;SDS_P1;SDS_P2;PMS_P1;PMS_P2;Temp;Humidity;BMP_temperature;BMP_pressure;BME280_temperature;BME280_humidity;BME280_pressure;Samples;Min_cycle;Max_cycle;Signal;HPM_P1;HPM_P2
2022/07/31 00:00:20;;;;;;;15.00;11.30;;;;;;;21.08;93.99;94691.81;5032739;28;20179;-76
2022/07/31 00:02:46;;;;;;;17.10;12.10;;;;;;;20.61;95.55;94666.44;5032757;28;20176;-77
2022/07/31 00:05:11;;;;;;;13.68;11.13;;;;;;;20.76;96.13;94680.81;5012897;28;20640;-76
2022/07/31 00:07:37;;;;;;;14.80;11.38;;;;;;;20.84;96.06;94686.38;5024119;28;20211;-76
2022/07/31 00:10:04;;;;;;;14.45;10.10;;;;;;;20.90;96.00;94689.78;5011455;28;20219;-76
2022/07/31 00:12:29;;;;;;;14.77;11.23;;;;;;;20.99;95.50;94682.78;5011752;28;20179;-76
2022/07/31 00:14:55;;;;;;;14.38;10.88;;;;;;;21.04;94.83;94682.72;5012550;28;20172;-76
2022/07/31 00:17:20;;;;;;;13.63;11.00;;;;;;;21.10;95.13;94690.41;5012526;28;20168;-76
2022/07/31 00:19:46;;;;;;;15.02;10.85;;;;;;;21.13;94.50;94697.09;5012357;28;20311;-76
2022/07/31 00:22:12;;;;;;;13.73;11.52;;;;;;;21.16;95.01;94709.94;5012455;28;20176;-76
2022/07/31 00:24:38;;;;;;;13.57;10.60;;;;;;;21.18;94.66;94713.16;5007174;28;20204;-76
2022/07/31 00:27:04;;;;;;;14.48;10.60;;;;;;;21.18;94.46;94705.13;4992931;28;20715;-76
2022/07/31 00:29:29;;;;;;;15.68;11.13;;;;;;;21.12;94.09;94697.38;4992864;28;20284;-76
2022/07/31 00:31:55;;;;;;;16.30;10.48;;;;;;;21.21;94.25;94706.44;4992673;28;20169;-76
2022/07/31 00:34:22;;;;;;;13.75;10.88;;;;;;;21.23;94.05;94705.09;4992510;28;20179;-76
2022/07/31 00:36:47;;;;;;;15.82;10.80;;;;;;;21.20;93.80;94696.81;4992605;28;20174;-76
2022/07/31 00:39:13;;;;;;;14.63;10.65;;;;;;;21.32;93.49;94716.00;4992475;28;20169;-76
2022/07/31 00:41:43;;;;;;;13.35;11.25;;;;;;;21.31;93.59;94717.88;4992571;28;20191;-76
2022/07/31 00:44:11;;;;;;;15.13;11.25;;;;;;;21.33;93.56;94712.22;4992419;28;20177;-76
2022/07/31 00:46:39;;;;;;;14.57;11.18;;;;;;;21.30;92.95;94713.59;4992442;28;20173;-76
2022/07/31 00:49:08;;;;;;;16.63;11.05;;;;;;;21.20;92.80;94711.00;4992376;28;20292;-76
2022/07/31 00:51:35;;;;;;;17.02;10.18;;;;;;;21.13;93.21;94709.69;4992623;28;20169;-76
2022/07/31 00:54:00;;;;;;;13.93;11.15;;;;;;;20.69;93.66;94681.91;4992490;28;20235;-76
2022/07/31 00:56:26;;;;;;;19.48;13.57;;;;;;;20.50;95.21;94710.38;4992245;28;20889;-76
2022/07/31 00:58:51;;;;;;;23.75;13.80;;;;;;;20.39;95.87;94700.81;4992255;28;20601;-76
2022/07/31 01:01:16;;;;;;;18.55;11.70;;;;;;;20.50;95.89;94712.25;4992177;28;20634;-76
2022/07/31 01:03:42;;;;;;;19.30;14.05;;;;;;;20.43;94.87;94706.41;4992253;28;20165;-76
2022/07/31 01:06:08;;;;;;;18.23;12.30;;;;;;;20.35;94.56;94721.16;4992221;28;20181;-76
2022/07/31 01:08:34;;;;;;;15.23;10.13;;;;;;;20.16;94.39;94696.06;4992001;28;20252;-76
2022/07/31 01:11:12;;;;;;;13.00;9.18;;;;;;;20.30;94.66;94729.97;4991960;28;20220;-76
2022/07/31 01:13:52;;;;;;;14.95;11.00;;;;;;;20.40;94.73;94728.38;4991872;28;20173;-76
2022/07/31 01:16:20;;;;;;;17.45;11.15;;;;;;;20.44;94.25;94716.81;4991857;28;20176;-76
2022/07/31 01:18:47;;;;;;;12.05;9.25;;;;;;;20.49;93.95;94722.16;4991662;28;20533;-76
2022/07/31 01:21:30;;;;;;;13.15;9.88;;;;;;;20.55;93.81;94714.91;4991847;28;20272;-76
2022/07/31 01:24:05;;;;;;;14.02;10.55;;;;;;;20.57;92.81;94708.22;4991790;28;20650;-76
2022/07/31 01:26:40;;;;;;;12.05;9.23;;;;;;;20.43;92.36;94717.09;4991732;28;20638;-76
2022/07/31 01:29:28;;;;;;;15.60;10.20;;;;;;;20.34;93.10;94716.88;4991616;28;20208;-77
2022/07/31 01:32:09;;;;;;;14.30;9.38;;;;;;;20.37;93.27;94724.34;4991792;28;20561;-76
2022/07/31 01:35:12;;;;;;;14.30;9.75;;;;;;;20.42;92.83;94720.84;4991872;28;20181;-76
2022/07/31 01:37:57;;;;;;;16.17;10.10;;;;;;;20.47;93.31;94729.66;4912708;29;20188;-76
2022/07/31 01:40:34;;;;;;;17.98;10.18;;;;;;;20.34;93.26;94698.16;4985187;28;20254;-76
2022/07/31 01:43:10;;;;;;;11.85;9.05;;;;;;;20.56;92.48;94717.31;4991674;28;20243;-76
2022/07/31 01:45:39;;;;;;;17.50;8.77;;;;;;;20.53;91.82;94711.69;4991446;28;20692;-76
2022/07/31 01:48:07;;;;;;;10.45;8.13;;;;;;;20.48;90.86;94717.09;4991233;28;20571;-76
2022/07/31 01:50:34;;;;;;;13.32;8.90;;;;;;;20.44;92.31;94718.69;4991197;28;20232;-76
2022/07/31 01:53:00;;;;;;;14.68;9.32;;;;;;;20.34;92.02;94706.19;4991401;28;20195;-76
2022/07/31 01:55:27;;;;;;;13.45;8.88;;;;;;;20.34;91.93;94714.19;4991473;28;20200;-76
2022/07/31 01:57:55;;;;;;;13.02;10.13;;;;;;;20.36;92.24;94716.59;4991257;28;20658;-76
2022/07/31 02:00:21;;;;;;;10.57;8.15;;;;;;;20.36;91.95;94717.41;4991237;28;20649;-76
2022/07/31 02:02:48;;;;;;;13.27;8.43;;;;;;;20.34;91.67;94716.88;4991356;28;20173;-76
2022/07/31 02:05:16;;;;;;;12.60;8.95;;;;;;;20.30;91.52;94721.97;4991325;28;20177;-76
2022/07/31 02:07:43;;;;;;;10.07;8.18;;;;;;;20.28;91.96;94717.94;4991182;28;20565;-76
2022/07/31 02:10:12;;;;;;;11.35;8.18;;;;;;;20.27;91.96;94713.69;4991243;28;20586;-76
2022/07/31 02:12:39;;;;;;;16.70;8.30;;;;;;;20.30;92.43;94726.50;4991278;28;20259;-76
2022/07/31 02:15:08;;;;;;;13.25;8.70;;;;;;;20.26;91.82;94714.75;4991498;28;20177;-76
2022/07/31 02:17:35;;;;;;;10.43;8.32;;;;;;;20.17;92.20;94719.06;4991317;28;20599;-76
2022/07/31 02:20:03;;;;;;;13.73;8.68;;;;;;;20.17;92.47;94722.53;4990856;28;20221;-76
2022/07/31 02:22:28;;;;;;;13.98;9.27;;;;;;;19.98;92.34;94691.34;4991344;28;20180;-76
2022/07/31 02:24:54;;;;;;;13.25;9.00;;;;;;;19.94;92.62;94683.06;4991215;28;20181;-76
2022/07/31 02:27:21;;;;;;;18.52;11.82;;;;;;;19.97;92.03;94687.88;4991047;28;20616;-76
2022/07/31 02:29:47;;;;;;;14.10;10.60;;;;;;;20.21;92.20;94726.28;4990948;28;20197;-76
2022/07/31 02:32:13;;;;;;;12.48;9.32;;;;;;;20.19;92.25;94717.72;4991088;28;20184;-76
2022/07/31 02:34:41;;;;;;;11.02;9.27;;;;;;;20.18;92.08;94731.34;4991237;28;20176;-76
2022/07/31 02:37:07;;;;;;;16.23;8.88;;;;;;;20.17;90.86;94727.88;4994270;28;20263;-76
2022/07/31 02:39:34;;;;;;;12.20;8.20;;;;;;;20.11;91.09;94736.19;4993235;28;20634;-76
2022/07/31 02:42:00;;;;;;;13.63;9.43;;;;;;;20.13;91.07;94734.88;4993149;28;20191;-76
2022/07/31 02:44:27;;;;;;;11.73;8.85;;;;;;;20.15;91.37;94738.03;4994318;28;20598;-76
2022/07/31 02:46:54;;;;;;;11.82;8.77;;;;;;;20.19;91.09;94727.63;4977289;28;20316;-76
2022/07/31 02:49:19;;;;;;;11.50;9.73;;;;;;;20.19;91.25;94730.28;4994702;28;20212;-76
2022/07/31 02:51:45;;;;;;;11.15;9.00;;;;;;;20.20;90.94;94731.88;4994616;28;20605;-76
2022/07/31 02:54:11;;;;;;;11.25;8.75;;;;;;;20.06;90.89;94718.31;4994615;28;20661;-76
2022/07/31 02:56:37;;;;;;;10.85;9.00;;;;;;;20.11;90.83;94731.66;4994493;28;20653;-77
2022/07/31 02:59:03;;;;;;;11.57;9.40;;;;;;;19.96;90.38;94711.13;4994858;28;20177;-77
2022/07/31 03:01:34;;;;;;;14.00;8.82;;;;;;;20.13;90.64;94734.88;4994690;28;20184;-77
2022/07/31 03:03:59;;;;;;;12.10;9.25;;;;;;;20.13;90.58;94729.50;4994658;28;20204;-77
2022/07/31 03:06:24;;;;;;;13.43;9.20;;;;;;;20.10;90.37;94731.91;4994637;28;20264;-77
2022/07/31 03:08:50;;;;;;;12.82;9.18;;;;;;;20.08;90.89;94731.38;4994517;28;20666;-77
2022/07/31 03:11:16;;;;;;;16.90;10.27;;;;;;;20.03;90.77;94734.91;4993103;28;20181;-77
2022/07/31 03:13:42;;;;;;;13.43;9.55;;;;;;;19.86;90.63;94713.03;4994415;28;20181;-77
2022/07/31 03:16:10;;;;;;;14.40;9.55;;;;;;;19.89;90.95;94739.22;4994597;28;20259;-77
2022/07/31 03:18:37;;;;;;;12.45;9.10;;;;;;;19.61;91.32;94703.22;4994098;28;20169;-77
2022/07/31 03:21:03;;;;;;;10.52;8.63;;;;;;;19.84;91.82;94747.22;4994325;28;20178;-77
2022/07/31 03:23:35;;;;;;;19.33;13.13;;;;;;;19.81;91.58;94742.41;4994353;28;20631;-77
2022/07/31 03:26:01;;;;;;;31.02;18.52;;;;;;;19.81;91.87;94750.44;4994318;28;20170;-77
2022/07/31 03:28:27;;;;;;;34.10;22.70;;;;;;;19.71;91.49;94726.44;4994067;28;20177;-76
2022/07/31 03:30:54;;;;;;;15.02;10.77;;;;;;;19.69;91.62;94734.72;4994192;28;20235;-77
2022/07/31 03:33:20;;;;;;;12.57;9.00;;;;;;;19.68;91.77;94745.66;4994248;28;20181;-77
2022/07/31 03:35:46;;;;;;;21.77;15.88;;;;;;;19.72;92.44;94744.06;4994033;28;20180;-77
2022/07/31 03:38:12;;;;;;;23.60;15.13;;;;;;;19.77;91.96;94750.19;4994224;28;20188;-77
2022/07/31 03:40:37;;;;;;;16.40;12.50;;;;;;;19.83;92.14;94759.78;4994269;28;20183;-77
2022/07/31 03:43:05;;;;;;;16.85;13.10;;;;;;;19.90;91.49;94754.16;4994061;28;20188;-77
2022/07/31 03:45:33;;;;;;;14.18;11.07;;;;;;;19.88;91.52;94761.66;4994200;28;20650;-77
2022/07/31 03:47:59;;;;;;;16.80;10.50;;;;;;;19.74;91.59;94764.06;4992195;28;20704;-77
2022/07/31 03:50:25;;;;;;;15.80;10.40;;;;;;;19.75;91.96;94759.53;4993746;28;20674;-77
2022/07/31 03:52:51;;;;;;;13.60;9.05;;;;;;;19.80;91.96;94767.56;4994035;28;20176;-77
2022/07/31 03:55:17;;;;;;;11.70;9.07;;;;;;;19.78;92.21;94762.47;4993639;28;20177;-77
2022/07/31 03:57:43;;;;;;;11.27;8.82;;;;;;;19.84;92.92;94772.09;4993762;28;20173;-77
2022/07/31 04:00:10;;;;;;;11.98;8.30;;;;;;;19.90;92.47;94768.31;4993505;28;20638;-77
2022/07/31 04:02:35;;;;;;;9.98;7.90;;;;;;;19.93;92.28;94759.78;4993581;28;20181;-77
2022/07/31 04:05:01;;;;;;;12.48;8.15;;;;;;;19.66;91.85;94740.59;4993514;28;20289;-77
2022/07/31 04:07:27;;;;;;;11.90;9.75;;;;;;;19.81;92.31;94769.13;4993506;28;20177;-77
2022/07/31 04:09:52;;;;;;;23.38;18.55;;;;;;;19.86;92.52;94772.63;4993380;28;20212;-77
2022/07/31 04:12:18;;;;;;;27.08;20.25;;;;;;;19.88;92.85;94769.69;4993458;28;20649;-77
2022/07/31 04:14:43;;;;;;;16.30;12.77;;;;;;;19.85;92.81;94770.22;4992199;28;20177;-77
2022/07/31 04:17:08;;;;;;;17.92;11.63;;;;;;;19.87;93.30;94768.06;4993287;28;20173;-77
2022/07/31 04:19:34;;;;;;;15.50;9.95;;;;;;;19.72;93.46;94762.78;4993499;28;20220;-77
2022/07/31 04:22:00;;;;;;;14.13;9.63;;;;;;;19.52;94.59;94769.72;4993345;28;20177;-77
2022/07/31 04:24:26;;;;;;;14.10;9.63;;;;;;;19.40;95.76;94768.34;4992981;28;20176;-77
2022/07/31 04:26:54;;;;;;;13.02;8.60;;;;;;;19.42;95.78;94764.34;4993043;28;20256;-77
2022/07/31 04:29:20;;;;;;;14.35;9.55;;;;;;;19.46;96.05;94751.28;4993330;28;20200;-77
2022/07/31 04:31:45;;;;;;;11.48;8.95;;;;;;;19.59;96.09;94748.09;4993692;28;20173;-77
2022/07/31 04:34:11;;;;;;;13.85;9.65;;;;;;;19.53;95.92;94757.19;5012232;28;20709;-76
2022/07/31 04:36:36;;;;;;;16.15;10.07;;;;;;;19.55;95.95;94729.13;5012599;28;20199;-76
2022/07/31 04:39:03;;;;;;;18.05;9.45;;;;;;;19.96;94.90;94755.75;5012327;28;20169;-76
2022/07/31 04:41:29;;;;;;;12.63;9.35;;;;;;;20.02;94.28;94760.00;5012292;28;20177;-76
2022/07/31 04:43:56;;;;;;;12.07;9.32;;;;;;;19.94;93.36;94745.34;5012179;28;20173;-76
2022/07/31 04:46:22;;;;;;;11.63;8.90;;;;;;;20.08;93.77;94753.56;5012027;28;20311;-76
2022/07/31 04:48:47;;;;;;;13.60;9.23;;;;;;;20.12;93.49;94760.00;5011997;28;20287;-76
2022/07/31 04:51:20;;;;;;;12.02;9.00;;;;;;;20.34;94.67;94763.13;5012077;28;20172;-76
2022/07/31 04:53:45;;;;;;;12.95;9.25;;;;;;;20.56;94.54;94759.31;5012137;28;20211;-76
2022/07/31 04:58:56;;;;;;;26.63;17.98;;;;;;;20.84;93.48;94757.81;5011760;28;20183;-76
2022/07/31 05:01:21;;;;;;;25.83;17.55;;;;;;;20.91;92.70;94767.13;5012059;28;20176;-76
2022/07/31 05:03:47;;;;;;;14.45;9.05;;;;;;;20.83;91.07;94765.06;5011770;28;20173;-76
2022/07/31 05:06:12;;;;;;;14.77;9.77;;;;;;;20.93;91.66;94772.22;5011758;28;20169;-76
2022/07/31 05:08:39;;;;;;;9.90;8.32;;;;;;;21.02;90.64;94775.88;4994129;28;20243;-76
2022/07/31 05:11:22;;;;;;;12.32;10.15;;;;;;;20.97;90.41;94773.25;4994252;28;20561;-76
2022/07/31 05:13:52;;;;;;;16.60;13.57;;;;;;;21.07;90.83;94783.91;5011657;28;20199;-76
2022/07/31 05:16:19;;;;;;;27.35;22.63;;;;;;;21.15;90.40;94780.63;5011580;28;20589;-76
2022/07/31 05:18:45;;;;;;;16.42;12.00;;;;;;;21.14;89.49;94775.53;5011820;28;20172;-76
2022/07/31 05:21:12;;;;;;;11.98;9.38;;;;;;;21.22;88.97;94767.75;5011941;28;20553;-76
2022/07/31 05:23:38;;;;;;;8.25;7.40;;;;;;;21.34;88.83;94767.41;5011980;28;20292;-76
2022/07/31 05:26:04;;;;;;;9.60;7.35;;;;;;;21.49;87.37;94774.50;5018424;28;20184;-76
2022/07/31 05:28:30;;;;;;;8.43;6.85;;;;;;;21.45;87.52;94755.50;5012054;28;20652;-76
2022/07/31 05:30:55;;;;;;;12.70;7.70;;;;;;;21.06;86.64;94774.25;4994742;28;20181;-75
2022/07/31 05:33:21;;;;;;;8.75;7.15;;;;;;;20.81;87.42;94777.91;5012024;28;20219;-76
2022/07/31 05:35:46;;;;;;;8.40;7.28;;;;;;;20.69;89.40;94774.75;5012250;28;20331;-76
2022/07/31 05:38:12;;;;;;;9.65;6.85;;;;;;;20.67;90.05;94771.53;5012296;28;20837;-77
2022/07/31 05:40:37;;;;;;;8.40;6.97;;;;;;;20.83;89.99;94772.28;5011782;28;20239;-76
2022/07/31 05:43:02;;;;;;;7.97;6.65;;;;;;;21.48;88.53;94771.03;5011359;28;20546;-76
2022/07/31 05:45:28;;;;;;;8.98;7.13;;;;;;;23.03;82.24;94790.25;5010331;28;20242;-76
2022/07/31 05:47:53;;;;;;;9.27;6.28;;;;;;;24.84;77.88;94787.41;5011409;28;20177;-76
2022/07/31 05:50:20;;;;;;;6.53;5.82;;;;;;;26.29;69.52;94792.34;5011144;28;20210;-76
2022/07/31 05:52:46;;;;;;;8.52;5.47;;;;;;;26.94;65.28;94793.53;5005030;28;20188;-77
2022/07/31 05:55:11;;;;;;;7.90;5.97;;;;;;;27.31;65.59;94794.84;5000059;28;20203;-77
2022/07/31 05:57:36;;;;;;;6.38;5.65;;;;;;;28.05;62.47;94781.91;5006134;28;20259;-78
2022/07/31 06:00:04;;;;;;;7.63;5.88;;;;;;;28.67;59.32;94794.94;5015036;28;20168;-78
2022/07/31 06:02:29;;;;;;;9.07;6.15;;;;;;;28.31;58.44;94792.69;5022848;28;20183;-78
2022/07/31 06:04:54;;;;;;;7.82;6.07;;;;;;;27.64;59.22;94800.59;5031592;28;20178;-79
2022/07/31 06:07:20;;;;;;;9.60;6.82;;;;;;;26.96;62.13;94799.44;5031837;28;20258;-78
2022/07/31 06:09:45;;;;;;;9.38;6.90;;;;;;;26.75;64.05;94792.97;5030446;28;20196;-78
2022/07/31 06:12:10;;;;;;;10.70;7.25;;;;;;;26.63;64.31;94783.59;5015170;28;20658;-77
2022/07/31 06:14:36;;;;;;;9.13;6.15;;;;;;;26.57;64.64;94781.31;5015563;28;20191;-77
2022/07/31 06:17:05;;;;;;;10.75;6.68;;;;;;;26.28;65.13;94749.47;5015353;28;20227;-77
2022/07/31 06:19:34;;;;;;;9.80;7.20;;;;;;;26.46;65.35;94780.03;5015507;28;20222;-78
2022/07/31 06:21:59;;;;;;;9.10;6.15;;;;;;;26.44;64.89;94766.84;5015119;28;20176;-77
2022/07/31 06:24:25;;;;;;;11.18;8.05;;;;;;;26.52;65.33;94784.19;4998022;28;20180;-78
2022/07/31 06:26:55;;;;;;;8.75;7.35;;;;;;;25.33;65.51;94769.66;4998022;28;21019;-78
2022/07/31 06:29:21;;;;;;;12.18;7.43;;;;;;;24.78;68.16;94770.56;5015094;28;20251;-78
2022/07/31 06:31:46;;;;;;;12.10;8.55;;;;;;;24.59;69.20;94756.41;5014742;28;20176;-78
2022/07/31 06:34:12;;;;;;;11.88;9.10;;;;;;;24.60;70.50;94771.47;5014681;28;20181;-78
2022/07/31 06:36:38;;;;;;;12.57;8.40;;;;;;;24.32;70.88;94741.06;4996804;28;20822;-78
2022/07/31 06:39:04;;;;;;;12.45;9.30;;;;;;;24.44;71.31;94765.59;4996962;28;20176;-78
2022/07/31 06:41:47;;;;;;;10.50;8.40;;;;;;;24.25;72.10;94751.44;5014374;28;20200;-78
2022/07/31 06:44:20;;;;;;;13.32;9.93;;;;;;;24.54;72.24;94767.31;5014496;28;20181;-78
2022/07/31 06:46:47;;;;;;;13.55;9.70;;;;;;;24.62;72.58;94769.28;5014537;28;20740;-78
2022/07/31 06:49:13;;;;;;;15.15;9.55;;;;;;;24.73;72.94;94761.78;5015082;28;20587;-78
2022/07/31 06:51:39;;;;;;;12.32;9.48;;;;;;;24.86;72.45;94758.28;5014943;28;20183;-78
2022/07/31 06:54:06;;;;;;;13.32;9.65;;;;;;;24.94;71.66;94768.34;5015032;28;20169;-78
2022/07/31 06:56:33;;;;;;;15.75;9.82;;;;;;;24.96;71.06;94778.84;5014952;28;20168;-79
2022/07/31 06:58:59;;;;;;;12.90;9.43;;;;;;;24.88;70.67;94780.31;5015153;28;20319;-78
2022/07/31 07:01:25;;;;;;;12.43;9.55;;;;;;;24.39;71.23;94763.00;5015049;28;20565;-78
2022/07/31 07:03:50;;;;;;;12.45;10.15;;;;;;;24.52;72.18;94782.94;5015319;28;20176;-78
2022/07/31 07:06:16;;;;;;;10.88;8.68;;;;;;;24.21;71.60;94785.44;5015267;28;20195;-79
2022/07/31 07:08:42;;;;;;;13.20;10.45;;;;;;;24.22;73.26;94775.44;5014874;28;20172;-79
2022/07/31 07:11:07;;;;;;;14.85;11.20;;;;;;;24.41;74.48;94785.03;5015035;28;20670;-79
2022/07/31 07:13:33;;;;;;;11.20;8.93;;;;;;;24.46;73.82;94756.44;5014021;28;20180;-79
2022/07/31 07:15:58;;;;;;;13.88;10.70;;;;;;;24.94;70.05;94792.59;5015073;28;20180;-79
2022/07/31 07:18:24;;;;;;;16.60;11.93;;;;;;;25.10;71.04;94793.06;5011386;28;20179;-78
2022/07/31 07:20:50;;;;;;;25.95;18.83;;;;;;;25.26;71.13;94797.00;5013510;28;20220;-77
2022/07/31 07:23:15;;;;;;;18.50;10.75;;;;;;;25.35;70.49;94779.00;5014643;28;20184;-79
2022/07/31 07:25:41;;;;;;;18.05;12.50;;;;;;;25.58;71.12;94795.22;5014467;28;20180;-79
2022/07/31 07:28:07;;;;;;;19.02;14.07;;;;;;;25.62;71.18;94788.91;5014694;28;20196;-80
2022/07/31 07:30:33;;;;;;;12.95;10.40;;;;;;;25.58;69.32;94798.69;5014801;28;20931;-78
2022/07/31 07:32:59;;;;;;;14.73;11.52;;;;;;;25.35;70.53;94772.81;5014281;28;20282;-78
2022/07/31 07:35:25;;;;;;;15.52;11.00;;;;;;;25.37;70.63;94792.97;5014294;28;20646;-77
2022/07/31 07:37:51;;;;;;;16.70;11.02;;;;;;;25.38;71.55;94791.88;5013182;28;20700;-78
2022/07/31 07:40:16;;;;;;;17.98;11.73;;;;;;;25.33;70.60;94799.31;5013601;28;20211;-78
2022/07/31 07:42:42;;;;;;;14.43;10.95;;;;;;;25.35;71.16;94792.47;5006057;28;20263;-78
2022/07/31 07:45:08;;;;;;;14.23;10.60;;;;;;;25.24;70.37;94745.31;5013855;28;20191;-80
2022/07/31 07:47:35;;;;;;;17.15;10.00;;;;;;;25.18;70.34;94776.97;5010237;28;20239;-79
2022/07/31 07:50:00;;;;;;;15.95;9.18;;;;;;;25.32;71.18;94785.03;4994676;28;20223;-79
2022/07/31 07:52:26;;;;;;;12.02;8.32;;;;;;;25.59;69.85;94794.94;4998233;28;20686;-78
2022/07/31 07:54:51;;;;;;;15.45;8.52;;;;;;;25.56;69.17;94763.16;5002938;28;20223;-80
2022/07/31 07:57:19;;;;;;;8.77;7.18;;;;;;;25.76;69.47;94778.88;4994299;28;20263;-80
2022/07/31 07:59:45;;;;;;;9.50;7.05;;;;;;;25.62;69.10;94750.34;4997474;28;20245;-80
2022/07/31 08:02:14;;;;;;;9.00;7.25;;;;;;;25.79;68.25;94790.94;5006313;28;20185;-81
2022/07/31 08:04:39;;;;;;;13.30;7.32;;;;;;;25.37;69.47;94786.78;5011225;28;20199;-80
2022/07/31 08:07:05;;;;;;;12.32;6.88;;;;;;;25.13;70.43;94793.25;5010397;28;20642;-80
2022/07/31 08:09:32;;;;;;;9.68;6.90;;;;;;;25.06;71.90;94798.28;5013299;28;20708;-79
2022/07/31 08:11:57;;;;;;;10.10;6.72;;;;;;;25.02;71.29;94797.28;5010147;28;20232;-80
2022/07/31 08:14:23;;;;;;;8.75;7.00;;;;;;;25.10;72.27;94803.84;5013502;28;20607;-79
2022/07/31 08:16:48;;;;;;;11.18;7.90;;;;;;;25.04;72.12;94800.47;5011385;28;20183;-80
2022/07/31 08:19:14;;;;;;;10.88;9.00;;;;;;;25.03;70.68;94808.84;5008356;28;20243;-78
2022/07/31 08:21:39;;;;;;;9.95;7.90;;;;;;;24.99;71.60;94802.47;5011200;28;20180;-77
2022/07/31 08:24:06;;;;;;;15.48;10.25;;;;;;;25.06;71.13;94805.56;5017006;28;20176;-78
2022/07/31 08:29:17;;;;;;;8.23;6.20;;;;;;;24.70;69.99;94794.69;4968599;28;20275;-80
2022/07/31 08:31:43;;;;;;;7.90;6.10;;;;;;;24.65;72.11;94797.50;4999705;28;20173;-78
2022/07/31 08:34:09;;;;;;;9.43;7.03;;;;;;;24.72;71.39;94806.78;5006361;28;20180;-77
2022/07/31 08:36:34;;;;;;;8.52;6.45;;;;;;;24.67;72.06;94792.59;5009187;28;20184;-80
2022/07/31 08:39:02;;;;;;;8.90;6.82;;;;;;;24.85;72.55;94799.75;5002198;28;20260;-78
2022/07/31 08:41:28;;;;;;;7.07;5.63;;;;;;;25.02;71.03;94774.91;5001861;28;20657;-78
2022/07/31 08:43:58;;;;;;;7.78;6.30;;;;;;;25.24;69.76;94806.50;5011997;28;20255;-78
2022/07/31 08:46:25;;;;;;;7.05;5.93;;;;;;;25.27;69.67;94808.59;5003257;28;20181;-78
2022/07/31 08:48:55;;;;;;;12.68;6.35;;;;;;;25.31;69.75;94791.50;5000814;28;20200;-78
2022/07/31 08:51:22;;;;;;;10.70;7.03;;;;;;;25.66;69.19;94806.09;5006542;28;20184;-79
2022/07/31 08:53:50;;;;;;;10.10;8.07;;;;;;;25.41;67.99;94806.66;4998238;28;20205;-78
2022/07/31 08:56:16;;;;;;;10.13;7.82;;;;;;;25.41;68.58;94798.56;5003483;28;20184;-81
2022/07/31 08:58:41;;;;;;;8.25;7.32;;;;;;;25.63;69.38;94801.28;5017255;28;20243;-78
2022/07/31 09:01:10;;;;;;;10.90;8.32;;;;;;;25.66;69.68;94779.13;5005131;28;20189;-77
2022/07/31 09:03:35;;;;;;;10.45;8.43;;;;;;;25.97;68.94;94808.81;5005392;28;20235;-76
2022/07/31 09:06:01;;;;;;;12.05;9.15;;;;;;;25.71;67.43;94757.41;4998679;28;20185;-74
2022/07/31 09:08:26;;;;;;;11.98;9.48;;;;;;;25.72;67.34;94810.25;5001924;28;20268;-78
2022/07/31 09:11:10;;;;;;;13.90;10.18;;;;;;;25.72;68.40;94804.84;5007197;28;20203;-77
2022/07/31 09:13:36;;;;;;;14.93;11.45;;;;;;;25.80;69.40;94804.09;5012778;28;20185;-78
2022/07/31 09:16:02;;;;;;;13.68;8.35;;;;;;;25.85;67.46;94808.59;4984069;28;20173;-77
2022/07/31 09:18:28;;;;;;;11.23;8.80;;;;;;;25.89;65.43;94809.56;5004453;28;20181;-76
2022/07/31 09:20:55;;;;;;;13.27;9.38;;;;;;;25.64;67.04;94791.31;5004140;28;20217;-76
2022/07/31 09:23:22;;;;;;;15.70;10.52;;;;;;;25.63;67.73;94809.38;5004952;28;20665;-76
2022/07/31 09:25:58;;;;;;;14.98;10.63;;;;;;;25.77;67.82;94812.03;5006673;28;20186;-75
2022/07/31 09:28:35;;;;;;;14.38;10.50;;;;;;;25.94;65.02;94801.34;5004236;28;20275;-76
2022/07/31 09:31:02;;;;;;;14.20;10.75;;;;;;;25.94;64.53;94806.75;5003635;28;20180;-75
2022/07/31 09:33:29;;;;;;;15.48;11.70;;;;;;;25.43;64.95;94807.94;5005980;28;20180;-76
2022/07/31 09:35:56;;;;;;;14.70;10.73;;;;;;;25.43;67.16;94794.44;5001749;28;20180;-77
2022/07/31 09:38:29;;;;;;;15.70;10.90;;;;;;;25.61;65.69;94803.50;5005574;28;20184;-76
2022/07/31 09:40:55;;;;;;;13.60;9.80;;;;;;;25.78;63.68;94797.41;5003097;28;20263;-75
2022/07/31 09:43:23;;;;;;;13.38;10.38;;;;;;;25.93;64.30;94791.66;5002128;28;20276;-76
2022/07/31 09:45:57;;;;;;;14.13;10.40;;;;;;;26.09;63.74;94798.25;4998012;28;20259;-76
2022/07/31 09:48:23;;;;;;;12.25;9.98;;;;;;;26.18;62.32;94798.31;4999450;28;20184;-76
2022/07/31 09:51:04;;;;;;;14.52;10.10;;;;;;;26.12;62.76;94803.00;5002684;28;20204;-76
2022/07/31 09:53:44;;;;;;;12.60;10.13;;;;;;;25.84;63.16;94798.91;5000888;28;20275;-76
2022/07/31 09:56:11;;;;;;;12.88;10.38;;;;;;;25.87;63.08;94793.69;4999767;28;20555;-75
2022/07/31 09:58:40;;;;;;;14.57;11.75;;;;;;;25.91;63.33;94791.16;5001438;28;20584;-76
2022/07/31 10:01:09;;;;;;;13.48;11.00;;;;;;;25.96;63.74;94790.22;5003152;28;20181;-75
2022/07/31 10:03:36;;;;;;;12.98;10.35;;;;;;;25.78;62.40;94767.75;5007151;28;20612;-76
2022/07/31 10:06:04;;;;;;;14.82;10.90;;;;;;;25.95;63.50;94783.28;5008666;28;20180;-75
2022/07/31 10:08:34;;;;;;;14.82;10.75;;;;;;;26.16;62.25;94785.13;5012822;28;20179;-75
2022/07/31 10:11:01;;;;;;;13.27;10.32;;;;;;;26.33;64.23;94772.81;5015904;28;20180;-76
2022/07/31 10:13:28;;;;;;;14.82;11.15;;;;;;;26.48;61.31;94772.41;5010864;28;20275;-75
2022/07/31 10:15:57;;;;;;;13.43;10.35;;;;;;;26.74;60.72;94777.88;5011421;28;20183;-75
2022/07/31 10:18:27;;;;;;;13.93;11.00;;;;;;;27.02;60.03;94768.44;5009833;28;20172;-75
2022/07/31 10:20:54;;;;;;;13.85;10.77;;;;;;;27.06;59.55;94771.31;5004915;28;20303;-76
2022/07/31 10:23:22;;;;;;;11.13;9.70;;;;;;;27.15;59.52;94769.41;5002220;28;20181;-75
2022/07/31 10:26:00;;;;;;;12.90;9.75;;;;;;;27.15;58.64;94745.06;4999003;28;20169;-75
2022/07/31 10:28:28;;;;;;;13.38;10.25;;;;;;;27.26;58.23;94763.34;4998071;28;20176;-76
2022/07/31 10:30:55;;;;;;;17.42;10.43;;;;;;;27.31;60.52;94762.41;5007442;28;20254;-76
2022/07/31 10:33:21;;;;;;;13.15;9.68;;;;;;;27.40;57.99;94760.50;5004301;28;20249;-76
2022/07/31 10:36:04;;;;;;;12.00;9.68;;;;;;;27.54;58.36;94760.34;5002797;28;20172;-76
2022/07/31 10:38:39;;;;;;;9.80;8.30;;;;;;;27.56;56.16;94756.22;4994748;28;20336;-76
2022/07/31 10:41:33;;;;;;;9.27;7.93;;;;;;;27.46;53.38;94743.00;4998721;28;20723;-75
2022/07/31 10:44:05;;;;;;;10.15;8.40;;;;;;;27.45;55.71;94746.81;5001210;28;20187;-76
2022/07/31 10:46:32;;;;;;;10.02;8.95;;;;;;;27.46;57.16;94751.09;5004554;28;20651;-75
2022/07/31 10:48:58;;;;;;;9.82;8.55;;;;;;;27.46;55.69;94739.50;5003636;28;20283;-75
2022/07/31 10:51:25;;;;;;;10.50;9.13;;;;;;;27.32;54.96;94745.06;5000894;28;20184;-75
2022/07/31 10:53:59;;;;;;;11.13;8.75;;;;;;;27.23;57.24;94719.94;5007938;28;20685;-76
2022/07/31 10:56:25;;;;;;;9.63;8.63;;;;;;;27.45;56.37;94736.00;5006012;28;20293;-75
2022/07/31 10:58:54;;;;;;;12.73;7.70;;;;;;;27.49;56.97;94736.94;5006495;28;20169;-75
2022/07/31 11:01:20;;;;;;;10.75;8.32;;;;;;;27.64;56.70;94738.38;5012859;28;20177;-76
2022/07/31 11:03:48;;;;;;;9.65;7.70;;;;;;;27.77;54.59;94731.97;5006401;28;20259;-75
2022/07/31 11:06:15;;;;;;;10.23;7.80;;;;;;;27.74;53.08;94732.63;5007992;28;20183;-76
2022/07/31 11:08:50;;;;;;;10.80;8.07;;;;;;;27.83;53.72;94730.72;5010331;28;20265;-76
2022/07/31 11:11:15;;;;;;;9.90;8.48;;;;;;;27.92;55.00;94730.69;5009547;28;20231;-76
2022/07/31 11:13:46;;;;;;;10.00;8.82;;;;;;;27.93;54.54;94726.88;5003344;28;20259;-76
2022/07/31 11:16:12;;;;;;;9.85;8.60;;;;;;;27.99;54.40;94726.34;5005534;28;20179;-76
2022/07/31 11:18:37;;;;;;;10.82;8.93;;;;;;;28.04;54.12;94720.75;5004042;28;20267;-76
2022/07/31 11:21:06;;;;;;;12.77;9.43;;;;;;;28.04;55.93;94712.63;4987893;28;20261;-75
2022/07/31 11:23:32;;;;;;;12.18;9.90;;;;;;;28.18;55.96;94722.50;5007608;28;20282;-76
2022/07/31 11:26:04;;;;;;;11.10;8.75;;;;;;;28.12;53.93;94721.84;5010396;28;20180;-77
2022/07/31 11:28:30;;;;;;;11.25;8.30;;;;;;;28.06;53.72;94717.72;5011257;28;20188;-77
2022/07/31 11:31:01;;;;;;;10.85;8.48;;;;;;;28.05;53.20;94716.13;5011436;28;20207;-76